sensor_id;sensor_type;location;lat;lon;timestamp;temperature;humidity
21193;DHT22;10754;51.106;7.164;2023-08-20T00:00:11;24.60;1.00
21193;DHT22;10754;51.106;7.164;2023-08-20T00:02:37;24.70;1.00
21193;DHT22;10754;51.106;7.164;2023-08-20T00:05:05;24.70;1.00
21193;DHT22;10754;51.106;7.164;2023-08-20T00:07:31;24.70;1.00
21193;DHT22;10754;51.106;7.164;2023-08-20T00:09:58;24.70;1.00
21193;DHT22;10754;51.106;7.164;2023-08-20T00:12:23;24.60;1.00
21193;DHT22;10754;51.106;7.164;2023-08-20T00:15:00;24.60;1.00
21193;DHT22;10754;51.106;7.164;2023-08-20T00:17:33;24.60;1.00
21193;DHT22;10754;51.106;7.164;2023-08-20T00:19:59;24.60;1.00
21193;DHT22;10754;51.106;7.164;2023-08-20T00:22:25;24.60;1.00
21193;DHT22;10754;51.106;7.164;2023-08-20T00:24:54;24.60;1.00
21193;DHT22;10754;51.106;7.164;2023-08-20T00:27:20;24.60;1.00
21193;DHT22;10754;51.106;7.164;2023-08-20T00:29:46;24.60;1.00
21193;DHT22;10754;51.106;7.164;2023-08-20T00:32:12;24.50;1.00
21193;DHT22;10754;51.106;7.164;2023-08-20T00:34:37;24.50;1.00
21193;DHT22;10754;51.106;7.164;2023-08-20T00:37:03;24.50;1.00
21193;DHT22;10754;51.106;7.164;2023-08-20T00:39:29;24.50;1.00
21193;DHT22;10754;51.106;7.164;2023-08-20T00:41:55;24.50;1.00
21193;DHT22;10754;51.106;7.164;2023-08-20T00:44:21;24.50;1.00
21193;DHT22;10754;51.106;7.164;2023-08-20T00:46:47;24.50;1.00
21193;DHT22;10754;51.106;7.164;2023-08-20T00:49:13;24.50;1.00
21193;DHT22;10754;51.106;7.164;2023-08-20T00:51:38;24.50;1.00
21193;DHT22;10754;51.106;7.164;2023-08-20T00:54:05;24.50;1.00
21193;DHT22;10754;51.106;7.164;2023-08-20T00:56:30;24.40;1.00
21193;DHT22;10754;51.106;7.164;2023-08-20T00:58:56;24.40;1.00
21193;DHT22;10754;51.106;7.164;2023-08-20T01:01:23;24.40;1.00
21193;DHT22;10754;51.106;7.164;2023-08-20T01:03:48;24.40;1.00
21193;DHT22;10754;51.106;7.164;2023-08-20T01:06:20;24.40;1.00
21193;DHT22;10754;51.106;7.164;2023-08-20T01:09:03;24.40;1.00
21193;DHT22;10754;51.106;7.164;2023-08-20T01:11:37;24.40;1.00
21193;DHT22;10754;51.106;7.164;2023-08-20T01:14:13;24.40;1.00
21193;DHT22;10754;51.106;7.164;2023-08-20T01:16:39;24.40;1.00
21193;DHT22;10754;51.106;7.164;2023-08-20T01:19:05;24.40;1.00
21193;DHT22;10754;51.106;7.164;2023-08-20T01:21:39;24.40;1.00
21193;DHT22;10754;51.106;7.164;2023-08-20T01:24:29;24.40;1.00
21193;DHT22;10754;51.106;7.164;2023-08-20T01:27:34;24.40;1.00
21193;DHT22;10754;51.106;7.164;2023-08-20T01:30:10;24.30;1.00
21193;DHT22;10754;51.106;7.164;2023-08-20T01:32:37;24.30;1.00
21193;DHT22;10754;51.106;7.164;2023-08-20T01:35:03;24.30;1.00
21193;DHT22;10754;51.106;7.164;2023-08-20T01:37:29;24.30;1.00
21193;DHT22;10754;51.106;7.164;2023-08-20T01:39:55;24.30;1.00
21193;DHT22;10754;51.106;7.164;2023-08-20T01:42:20;24.30;1.00
21193;DHT22;10754;51.106;7.164;2023-08-20T01:44:46;24.30;1.00
21193;DHT22;10754;51.106;7.164;2023-08-20T01:47:11;24.30;1.00
21193;DHT22;10754;51.106;7.164;2023-08-20T01:49:36;24.30;1.00
21193;DHT22;10754;51.106;7.164;2023-08-20T01:52:02;24.20;1.00
21193;DHT22;10754;51.106;7.164;2023-08-20T01:54:29;24.20;1.00
21193;DHT22;10754;51.106;7.164;2023-08-20T01:56:54;24.20;1.00
21193;DHT22;10754;51.106;7.164;2023-08-20T01:59:21;24.20;1.00
21193;DHT22;10754;51.106;7.164;2023-08-20T02:01:47;24.20;1.00
21193;DHT22;10754;51.106;7.164;2023-08-20T02:04:12;24.20;1.00
21193;DHT22;10754;51.106;7.164;2023-08-20T02:06:38;24.20;1.00
21193;DHT22;10754;51.106;7.164;2023-08-20T02:09:03;24.20;1.00
21193;DHT22;10754;51.106;7.164;2023-08-20T02:11:29;24.20;1.00
21193;DHT22;10754;51.106;7.164;2023-08-20T02:13:56;24.10;1.00
21193;DHT22;10754;51.106;7.164;2023-08-20T02:16:21;24.10;1.00
21193;DHT22;10754;51.106;7.164;2023-08-20T02:18:47;24.20;1.00
21193;DHT22;10754;51.106;7.164;2023-08-20T02:21:12;24.10;1.00
21193;DHT22;10754;51.106;7.164;2023-08-20T02:23:38;24.10;1.00
21193;DHT22;10754;51.106;7.164;2023-08-20T02:26:03;24.10;1.00
21193;DHT22;10754;51.106;7.164;2023-08-20T02:28:29;24.10;1.00
21193;DHT22;10754;51.106;7.164;2023-08-20T02:30:54;24.10;1.00
21193;DHT22;10754;51.106;7.164;2023-08-20T02:33:20;24.10;1.00
21193;DHT22;10754;51.106;7.164;2023-08-20T02:35:46;24.10;1.00
21193;DHT22;10754;51.106;7.164;2023-08-20T02:38:11;24.10;1.00
21193;DHT22;10754;51.106;7.164;2023-08-20T02:40:41;24.10;1.00
21193;DHT22;10754;51.106;7.164;2023-08-20T02:43:07;24.10;1.00
21193;DHT22;10754;51.106;7.164;2023-08-20T02:45:32;24.00;1.00
21193;DHT22;10754;51.106;7.164;2023-08-20T02:47:59;24.10;1.00
21193;DHT22;10754;51.106;7.164;2023-08-20T02:50:24;24.00;1.00
21193;DHT22;10754;51.106;7.164;2023-08-20T02:52:50;24.00;1.00
21193;DHT22;10754;51.106;7.164;2023-08-20T02:55:15;24.00;1.00
21193;DHT22;10754;51.106;7.164;2023-08-20T02:57:41;24.00;1.00
21193;DHT22;10754;51.106;7.164;2023-08-20T03:00:07;24.00;1.00
21193;DHT22;10754;51.106;7.164;2023-08-20T03:02:36;24.00;1.00
21193;DHT22;10754;51.106;7.164;2023-08-20T03:05:02;24.00;1.00
21193;DHT22;10754;51.106;7.164;2023-08-20T03:07:30;24.00;1.00
21193;DHT22;10754;51.106;7.164;2023-08-20T03:09:55;24.00;1.00
21193;DHT22;10754;51.106;7.164;2023-08-20T03:12:21;24.00;1.00
21193;DHT22;10754;51.106;7.164;2023-08-20T03:14:47;23.90;1.00
21193;DHT22;10754;51.106;7.164;2023-08-20T03:17:12;23.90;1.00
21193;DHT22;10754;51.106;7.164;2023-08-20T03:20:02;23.90;1.00
21193;DHT22;10754;51.106;7.164;2023-08-20T03:22:31;24.00;1.00
21193;DHT22;10754;51.106;7.164;2023-08-20T03:24:57;23.90;1.00
21193;DHT22;10754;51.106;7.164;2023-08-20T03:27:22;23.90;1.00
21193;DHT22;10754;51.106;7.164;2023-08-20T03:29:48;23.90;1.00
21193;DHT22;10754;51.106;7.164;2023-08-20T03:32:13;23.90;1.00
21193;DHT22;10754;51.106;7.164;2023-08-20T03:34:39;23.90;1.00
21193;DHT22;10754;51.106;7.164;2023-08-20T03:37:04;23.90;1.00
21193;DHT22;10754;51.106;7.164;2023-08-20T03:39:30;23.90;1.00
21193;DHT22;10754;51.106;7.164;2023-08-20T03:41:59;23.90;1.00
21193;DHT22;10754;51.106;7.164;2023-08-20T03:44:24;23.90;1.00
21193;DHT22;10754;51.106;7.164;2023-08-20T03:46:50;23.90;1.00
21193;DHT22;10754;51.106;7.164;2023-08-20T03:49:15;23.90;1.00
21193;DHT22;10754;51.106;7.164;2023-08-20T03:51:41;23.90;1.00
21193;DHT22;10754;51.106;7.164;2023-08-20T03:54:08;23.80;1.00
21193;DHT22;10754;51.106;7.164;2023-08-20T03:56:33;23.80;1.00
21193;DHT22;10754;51.106;7.164;2023-08-20T03:58:59;23.80;1.00
21193;DHT22;10754;51.106;7.164;2023-08-20T04:01:24;23.80;1.00
21193;DHT22;10754;51.106;7.164;2023-08-20T04:03:50;23.80;1.00
21193;DHT22;10754;51.106;7.164;2023-08-20T04:06:15;23.80;1.00
21193;DHT22;10754;51.106;7.164;2023-08-20T04:08:41;23.90;1.00
21193;DHT22;10754;51.106;7.164;2023-08-20T04:11:07;23.80;1.00
21193;DHT22;10754;51.106;7.164;2023-08-20T04:13:32;23.80;1.00
21193;DHT22;10754;51.106;7.164;2023-08-20T04:15:58;23.80;1.00
21193;DHT22;10754;51.106;7.164;2023-08-20T04:18:23;23.80;1.00
21193;DHT22;10754;51.106;7.164;2023-08-20T04:20:53;23.80;1.00
21193;DHT22;10754;51.106;7.164;2023-08-20T04:23:19;23.80;1.00
21193;DHT22;10754;51.106;7.164;2023-08-20T04:25:45;23.80;1.00
21193;DHT22;10754;51.106;7.164;2023-08-20T04:28:11;23.80;1.00
21193;DHT22;10754;51.106;7.164;2023-08-20T04:30:37;23.80;1.00
21193;DHT22;10754;51.106;7.164;2023-08-20T04:33:03;23.80;1.00
21193;DHT22;10754;51.106;7.164;2023-08-20T04:35:28;23.80;1.00
21193;DHT22;10754;51.106;7.164;2023-08-20T04:37:54;23.80;1.00
21193;DHT22;10754;51.106;7.164;2023-08-20T04:40:20;23.80;1.00
21193;DHT22;10754;51.106;7.164;2023-08-20T04:42:45;23.80;1.00
21193;DHT22;10754;51.106;7.164;2023-08-20T04:45:11;23.80;1.00
21193;DHT22;10754;51.106;7.164;2023-08-20T04:47:37;23.80;1.00
21193;DHT22;10754;51.106;7.164;2023-08-20T04:50:03;23.80;1.00
21193;DHT22;10754;51.106;7.164;2023-08-20T04:52:32;23.80;1.00
21193;DHT22;10754;51.106;7.164;2023-08-20T04:54:58;23.80;1.00
21193;DHT22;10754;51.106;7.164;2023-08-20T04:57:23;23.80;1.00
21193;DHT22;10754;51.106;7.164;2023-08-20T04:59:49;23.80;1.00
21193;DHT22;10754;51.106;7.164;2023-08-20T05:02:14;23.80;1.00
21193;DHT22;10754;51.106;7.164;2023-08-20T05:04:40;23.80;1.00
21193;DHT22;10754;51.106;7.164;2023-08-20T05:07:06;23.80;1.00
21193;DHT22;10754;51.106;7.164;2023-08-20T05:09:32;23.80;1.00
21193;DHT22;10754;51.106;7.164;2023-08-20T05:11:58;23.80;1.00
21193;DHT22;10754;51.106;7.164;2023-08-20T05:14:23;23.80;1.00
21193;DHT22;10754;51.106;7.164;2023-08-20T05:16:49;23.80;1.00
21193;DHT22;10754;51.106;7.164;2023-08-20T05:19:14;23.80;1.00
21193;DHT22;10754;51.106;7.164;2023-08-20T05:21:40;23.80;1.00
21193;DHT22;10754;51.106;7.164;2023-08-20T05:24:05;23.80;1.00
21193;DHT22;10754;51.106;7.164;2023-08-20T05:26:31;23.80;1.00
21193;DHT22;10754;51.106;7.164;2023-08-20T05:28:56;23.80;1.00
21193;DHT22;10754;51.106;7.164;2023-08-20T05:31:22;23.90;1.00
21193;DHT22;10754;51.106;7.164;2023-08-20T05:33:47;23.80;1.00
21193;DHT22;10754;51.106;7.164;2023-08-20T05:36:14;23.80;1.00
21193;DHT22;10754;51.106;7.164;2023-08-20T05:38:39;23.80;1.00
21193;DHT22;10754;51.106;7.164;2023-08-20T05:41:07;23.90;1.00
21193;DHT22;10754;51.106;7.164;2023-08-20T05:43:33;23.90;1.00
21193;DHT22;10754;51.106;7.164;2023-08-20T05:45:58;23.90;1.00
21193;DHT22;10754;51.106;7.164;2023-08-20T05:48:24;23.90;1.00
21193;DHT22;10754;51.106;7.164;2023-08-20T05:50:49;23.90;1.00
21193;DHT22;10754;51.106;7.164;2023-08-20T05:53:15;23.90;1.00
21193;DHT22;10754;51.106;7.164;2023-08-20T05:55:40;23.90;1.00
21193;DHT22;10754;51.106;7.164;2023-08-20T05:58:06;24.00;1.00
21193;DHT22;10754;51.106;7.164;2023-08-20T06:00:31;23.90;1.00
21193;DHT22;10754;51.106;7.164;2023-08-20T06:02:57;23.90;1.00
21193;DHT22;10754;51.106;7.164;2023-08-20T06:05:22;24.00;1.00
21193;DHT22;10754;51.106;7.164;2023-08-20T06:07:48;24.00;1.00
21193;DHT22;10754;51.106;7.164;2023-08-20T06:10:13;24.00;1.00
21193;DHT22;10754;51.106;7.164;2023-08-20T06:12:39;24.00;1.00
21193;DHT22;10754;51.106;7.164;2023-08-20T06:15:05;24.10;1.00
21193;DHT22;10754;51.106;7.164;2023-08-20T06:17:31;24.10;1.00
21193;DHT22;10754;51.106;7.164;2023-08-20T06:19:57;24.10;1.00
21193;DHT22;10754;51.106;7.164;2023-08-20T06:22:22;24.10;1.00
21193;DHT22;10754;51.106;7.164;2023-08-20T06:24:48;24.10;1.00
21193;DHT22;10754;51.106;7.164;2023-08-20T06:27:13;24.10;1.00
21193;DHT22;10754;51.106;7.164;2023-08-20T06:29:39;24.10;1.00
21193;DHT22;10754;51.106;7.164;2023-08-20T06:32:04;24.10;1.00
21193;DHT22;10754;51.106;7.164;2023-08-20T06:34:30;24.10;1.00
21193;DHT22;10754;51.106;7.164;2023-08-20T06:36:56;24.20;1.00
21193;DHT22;10754;51.106;7.164;2023-08-20T06:39:21;24.20;1.00
21193;DHT22;10754;51.106;7.164;2023-08-20T06:41:47;24.30;1.00
21193;DHT22;10754;51.106;7.164;2023-08-20T06:44:15;24.30;1.00
21193;DHT22;10754;51.106;7.164;2023-08-20T06:46:40;24.30;1.00
21193;DHT22;10754;51.106;7.164;2023-08-20T06:49:06;24.40;1.00
21193;DHT22;10754;51.106;7.164;2023-08-20T06:51:32;24.40;1.00
21193;DHT22;10754;51.106;7.164;2023-08-20T06:53:57;24.40;1.00
21193;DHT22;10754;51.106;7.164;2023-08-20T06:56:23;24.40;1.00
21193;DHT22;10754;51.106;7.164;2023-08-20T06:58:49;24.50;1.00
21193;DHT22;10754;51.106;7.164;2023-08-20T07:01:14;24.50;1.00
21193;DHT22;10754;51.106;7.164;2023-08-20T07:03:41;24.60;1.00
21193;DHT22;10754;51.106;7.164;2023-08-20T07:06:07;24.60;1.00
21193;DHT22;10754;51.106;7.164;2023-08-20T07:08:34;24.70;1.00
21193;DHT22;10754;51.106;7.164;2023-08-20T07:11:00;24.70;1.00
21193;DHT22;10754;51.106;7.164;2023-08-20T07:13:26;24.70;1.00
21193;DHT22;10754;51.106;7.164;2023-08-20T07:15:51;24.70;1.00
21193;DHT22;10754;51.106;7.164;2023-08-20T07:18:17;24.70;1.00
21193;DHT22;10754;51.106;7.164;2023-08-20T07:20:43;24.80;1.00
21193;DHT22;10754;51.106;7.164;2023-08-20T07:23:10;24.80;1.00
21193;DHT22;10754;51.106;7.164;2023-08-20T07:25:40;24.90;1.00
21193;DHT22;10754;51.106;7.164;2023-08-20T07:28:06;25.00;1.00
21193;DHT22;10754;51.106;7.164;2023-08-20T07:30:33;25.00;1.00
21193;DHT22;10754;51.106;7.164;2023-08-20T07:32:59;25.00;1.00
21193;DHT22;10754;51.106;7.164;2023-08-20T07:35:25;25.10;1.00
21193;DHT22;10754;51.106;7.164;2023-08-20T07:37:50;25.20;1.00
21193;DHT22;10754;51.106;7.164;2023-08-20T07:40:16;25.20;1.00
21193;DHT22;10754;51.106;7.164;2023-08-20T07:42:42;25.30;1.00
21193;DHT22;10754;51.106;7.164;2023-08-20T07:45:08;25.40;1.00
21193;DHT22;10754;51.106;7.164;2023-08-20T07:47:35;25.40;1.00
21193;DHT22;10754;51.106;7.164;2023-08-20T07:50:01;25.30;1.00
21193;DHT22;10754;51.106;7.164;2023-08-20T07:52:26;25.40;1.00
21193;DHT22;10754;51.106;7.164;2023-08-20T07:54:51;25.40;1.00
21193;DHT22;10754;51.106;7.164;2023-08-20T07:57:17;25.40;1.00
21193;DHT22;10754;51.106;7.164;2023-08-20T07:59:42;25.40;1.00
21193;DHT22;10754;51.106;7.164;2023-08-20T08:02:08;25.40;1.00
21193;DHT22;10754;51.106;7.164;2023-08-20T08:04:34;25.20;1.00
21193;DHT22;10754;51.106;7.164;2023-08-20T08:06:59;25.20;1.00
21193;DHT22;10754;51.106;7.164;2023-08-20T08:09:30;25.20;1.00
21193;DHT22;10754;51.106;7.164;2023-08-20T08:11:56;25.30;1.00
21193;DHT22;10754;51.106;7.164;2023-08-20T08:14:21;25.20;1.00
21193;DHT22;10754;51.106;7.164;2023-08-20T08:16:47;25.20;1.00
21193;DHT22;10754;51.106;7.164;2023-08-20T08:19:13;25.20;1.00
21193;DHT22;10754;51.106;7.164;2023-08-20T08:21:39;25.20;1.00
21193;DHT22;10754;51.106;7.164;2023-08-20T08:24:05;25.30;1.00
21193;DHT22;10754;51.106;7.164;2023-08-20T08:26:33;25.30;1.00
21193;DHT22;10754;51.106;7.164;2023-08-20T08:28:59;25.30;1.00
21193;DHT22;10754;51.106;7.164;2023-08-20T08:31:24;25.30;1.00
21193;DHT22;10754;51.106;7.164;2023-08-20T08:33:49;25.30;1.00
21193;DHT22;10754;51.106;7.164;2023-08-20T08:36:15;25.30;1.00
21193;DHT22;10754;51.106;7.164;2023-08-20T08:38:42;25.30;1.00
21193;DHT22;10754;51.106;7.164;2023-08-20T08:41:11;25.30;1.00
21193;DHT22;10754;51.106;7.164;2023-08-20T08:43:40;25.40;1.00
21193;DHT22;10754;51.106;7.164;2023-08-20T08:46:07;25.40;1.00
21193;DHT22;10754;51.106;7.164;2023-08-20T08:48:34;25.50;1.00
21193;DHT22;10754;51.106;7.164;2023-08-20T08:51:01;25.50;1.00
21193;DHT22;10754;51.106;7.164;2023-08-20T08:53:27;25.50;1.00
21193;DHT22;10754;51.106;7.164;2023-08-20T08:55:52;25.40;1.00
21193;DHT22;10754;51.106;7.164;2023-08-20T08:58:18;25.50;1.00
21193;DHT22;10754;51.106;7.164;2023-08-20T09:00:43;25.50;1.00
21193;DHT22;10754;51.106;7.164;2023-08-20T09:03:09;25.50;1.00
21193;DHT22;10754;51.106;7.164;2023-08-20T09:05:54;25.50;1.00
21193;DHT22;10754;51.106;7.164;2023-08-20T09:08:28;25.80;1.00
21193;DHT22;10754;51.106;7.164;2023-08-20T09:10:56;25.90;1.00
21193;DHT22;10754;51.106;7.164;2023-08-20T09:13:44;25.90;1.00
21193;DHT22;10754;51.106;7.164;2023-08-20T09:16:10;25.90;1.00
21193;DHT22;10754;51.106;7.164;2023-08-20T09:18:46;25.90;1.00
21193;DHT22;10754;51.106;7.164;2023-08-20T09:21:13;25.90;1.00
21193;DHT22;10754;51.106;7.164;2023-08-20T09:23:39;25.90;1.00
21193;DHT22;10754;51.106;7.164;2023-08-20T09:26:06;25.90;1.00
21193;DHT22;10754;51.106;7.164;2023-08-20T09:28:43;26.00;1.00
21193;DHT22;10754;51.106;7.164;2023-08-20T09:31:09;26.20;1.00
21193;DHT22;10754;51.106;7.164;2023-08-20T09:33:35;26.10;1.00
21193;DHT22;10754;51.106;7.164;2023-08-20T09:36:03;26.10;1.00
21193;DHT22;10754;51.106;7.164;2023-08-20T09:38:28;26.10;1.00
21193;DHT22;10754;51.106;7.164;2023-08-20T09:40:54;26.10;1.00
21193;DHT22;10754;51.106;7.164;2023-08-20T09:43:24;26.20;1.00
21193;DHT22;10754;51.106;7.164;2023-08-20T09:45:55;26.20;1.00
21193;DHT22;10754;51.106;7.164;2023-08-20T09:48:22;26.20;1.00
21193;DHT22;10754;51.106;7.164;2023-08-20T09:50:49;26.20;1.00
21193;DHT22;10754;51.106;7.164;2023-08-20T09:55:56;26.40;1.00
21193;DHT22;10754;51.106;7.164;2023-08-20T09:58:26;26.60;1.00
21193;DHT22;10754;51.106;7.164;2023-08-20T10:00:53;26.60;1.00
21193;DHT22;10754;51.106;7.164;2023-08-20T10:03:20;26.60;1.00
21193;DHT22;10754;51.106;7.164;2023-08-20T10:05:49;26.70;1.00
21193;DHT22;10754;51.106;7.164;2023-08-20T10:08:15;26.60;1.00
21193;DHT22;10754;51.106;7.164;2023-08-20T10:10:40;26.60;1.00
21193;DHT22;10754;51.106;7.164;2023-08-20T10:13:06;26.70;1.00
21193;DHT22;10754;51.106;7.164;2023-08-20T10:15:32;26.80;1.00
21193;DHT22;10754;51.106;7.164;2023-08-20T10:18:00;26.80;1.00
21193;DHT22;10754;51.106;7.164;2023-08-20T10:20:29;27.00;1.00
21193;DHT22;10754;51.106;7.164;2023-08-20T10:23:00;27.30;1.00
21193;DHT22;10754;51.106;7.164;2023-08-20T10:25:26;27.50;1.00
21193;DHT22;10754;51.106;7.164;2023-08-20T10:27:52;27.70;1.00
21193;DHT22;10754;51.106;7.164;2023-08-20T10:30:25;27.90;1.00
21193;DHT22;10754;51.106;7.164;2023-08-20T10:32:56;28.00;1.00
21193;DHT22;10754;51.106;7.164;2023-08-20T10:35:46;28.20;1.00
21193;DHT22;10754;51.106;7.164;2023-08-20T10:38:14;28.20;1.00
21193;DHT22;10754;51.106;7.164;2023-08-20T10:40:54;28.10;1.00
21193;DHT22;10754;51.106;7.164;2023-08-20T10:46:17;28.10;1.00
21193;DHT22;10754;51.106;7.164;2023-08-20T10:48:47;28.20;1.00
21193;DHT22;10754;51.106;7.164;2023-08-20T10:51:16;28.40;1.00
21193;DHT22;10754;51.106;7.164;2023-08-20T10:53:43;28.40;1.00
21193;DHT22;10754;51.106;7.164;2023-08-20T10:56:15;28.60;1.00
21193;DHT22;10754;51.106;7.164;2023-08-20T10:58:43;28.80;1.00
21193;DHT22;10754;51.106;7.164;2023-08-20T11:01:15;29.00;1.00
21193;DHT22;10754;51.106;7.164;2023-08-20T11:03:45;29.40;1.00
21193;DHT22;10754;51.106;7.164;2023-08-20T11:06:12;29.40;1.00
21193;DHT22;10754;51.106;7.164;2023-08-20T11:08:38;29.70;1.00
21193;DHT22;10754;51.106;7.164;2023-08-20T11:11:05;29.80;1.00
21193;DHT22;10754;51.106;7.164;2023-08-20T11:13:32;30.00;1.00
21193;DHT22;10754;51.106;7.164;2023-08-20T11:15:59;30.20;1.00
21193;DHT22;10754;51.106;7.164;2023-08-20T11:18:25;30.40;99.90
21193;DHT22;10754;51.106;7.164;2023-08-20T11:20:51;30.60;99.90
21193;DHT22;10754;51.106;7.164;2023-08-20T11:23:16;30.80;99.90
21193;DHT22;10754;51.106;7.164;2023-08-20T11:25:43;30.70;99.90
21193;DHT22;10754;51.106;7.164;2023-08-20T11:28:09;31.00;99.90
21193;DHT22;10754;51.106;7.164;2023-08-20T11:30:35;31.00;99.90
21193;DHT22;10754;51.106;7.164;2023-08-20T11:33:00;31.00;99.90
21193;DHT22;10754;51.106;7.164;2023-08-20T11:35:26;31.20;99.90
21193;DHT22;10754;51.106;7.164;2023-08-20T11:37:52;31.40;99.90
21193;DHT22;10754;51.106;7.164;2023-08-20T11:40:20;31.40;99.90
21193;DHT22;10754;51.106;7.164;2023-08-20T11:42:46;31.50;99.90
21193;DHT22;10754;51.106;7.164;2023-08-20T11:45:12;31.80;99.90
21193;DHT22;10754;51.106;7.164;2023-08-20T11:47:43;31.90;99.90
21193;DHT22;10754;51.106;7.164;2023-08-20T11:50:09;32.10;99.90
21193;DHT22;10754;51.106;7.164;2023-08-20T11:52:36;32.00;99.90
21193;DHT22;10754;51.106;7.164;2023-08-20T11:55:02;31.40;99.90
21193;DHT22;10754;51.106;7.164;2023-08-20T11:57:29;31.90;99.90
21193;DHT22;10754;51.106;7.164;2023-08-20T11:59:55;32.10;99.90
21193;DHT22;10754;51.106;7.164;2023-08-20T12:02:26;31.80;99.90
21193;DHT22;10754;51.106;7.164;2023-08-20T12:04:56;31.90;99.90
21193;DHT22;10754;51.106;7.164;2023-08-20T12:07:25;31.70;99.90
21193;DHT22;10754;51.106;7.164;2023-08-20T12:09:55;31.50;99.90
21193;DHT22;10754;51.106;7.164;2023-08-20T12:12:21;31.20;99.90
21193;DHT22;10754;51.106;7.164;2023-08-20T12:14:47;31.00;99.90
21193;DHT22;10754;51.106;7.164;2023-08-20T12:17:16;31.30;99.90
21193;DHT22;10754;51.106;7.164;2023-08-20T12:19:41;33.40;99.90
21193;DHT22;10754;51.106;7.164;2023-08-20T12:22:07;33.20;99.90
21193;DHT22;10754;51.106;7.164;2023-08-20T12:24:33;33.90;99.90
21193;DHT22;10754;51.106;7.164;2023-08-20T12:26:59;33.80;99.90
21193;DHT22;10754;51.106;7.164;2023-08-20T12:29:25;33.20;99.90
21193;DHT22;10754;51.106;7.164;2023-08-20T12:31:50;33.30;99.90
21193;DHT22;10754;51.106;7.164;2023-08-20T12:34:16;33.10;99.90
21193;DHT22;10754;51.106;7.164;2023-08-20T12:36:41;33.30;99.90
21193;DHT22;10754;51.106;7.164;2023-08-20T12:39:07;34.70;99.90
21193;DHT22;10754;51.106;7.164;2023-08-20T12:41:33;35.80;99.90
21193;DHT22;10754;51.106;7.164;2023-08-20T12:44:00;35.40;99.90
21193;DHT22;10754;51.106;7.164;2023-08-20T12:46:26;34.00;99.90
21193;DHT22;10754;51.106;7.164;2023-08-20T12:48:52;33.40;99.90
21193;DHT22;10754;51.106;7.164;2023-08-20T12:51:17;34.10;99.90
21193;DHT22;10754;51.106;7.164;2023-08-20T12:53:43;35.90;99.90
21193;DHT22;10754;51.106;7.164;2023-08-20T12:56:09;34.90;99.90
21193;DHT22;10754;51.106;7.164;2023-08-20T12:58:35;33.70;99.90
21193;DHT22;10754;51.106;7.164;2023-08-20T13:01:00;33.10;99.90
21193;DHT22;10754;51.106;7.164;2023-08-20T13:03:26;34.50;99.90
21193;DHT22;10754;51.106;7.164;2023-08-20T13:05:53;34.10;99.90
21193;DHT22;10754;51.106;7.164;2023-08-20T13:08:19;33.20;99.90
21193;DHT22;10754;51.106;7.164;2023-08-20T13:10:53;32.60;99.90
21193;DHT22;10754;51.106;7.164;2023-08-20T13:13:21;32.70;99.90
21193;DHT22;10754;51.106;7.164;2023-08-20T13:15:48;32.90;99.90
21193;DHT22;10754;51.106;7.164;2023-08-20T13:18:14;34.10;99.90
21193;DHT22;10754;51.106;7.164;2023-08-20T13:20:40;34.20;99.90
21193;DHT22;10754;51.106;7.164;2023-08-20T13:23:06;34.50;99.90
21193;DHT22;10754;51.106;7.164;2023-08-20T13:25:31;35.20;99.90
21193;DHT22;10754;51.106;7.164;2023-08-20T13:27:57;35.60;99.90
21193;DHT22;10754;51.106;7.164;2023-08-20T13:30:22;35.50;99.90
21193;DHT22;10754;51.106;7.164;2023-08-20T13:32:49;35.40;99.90
21193;DHT22;10754;51.106;7.164;2023-08-20T13:35:14;35.20;99.90
21193;DHT22;10754;51.106;7.164;2023-08-20T13:37:40;34.60;99.90
21193;DHT22;10754;51.106;7.164;2023-08-20T13:40:06;33.50;99.90
21193;DHT22;10754;51.106;7.164;2023-08-20T13:42:35;33.90;99.90
21193;DHT22;10754;51.106;7.164;2023-08-20T13:45:01;34.50;99.90
21193;DHT22;10754;51.106;7.164;2023-08-20T13:47:26;35.00;99.90
21193;DHT22;10754;51.106;7.164;2023-08-20T13:49:52;35.30;99.90
21193;DHT22;10754;51.106;7.164;2023-08-20T13:52:17;35.00;99.90
21193;DHT22;10754;51.106;7.164;2023-08-20T13:54:43;34.70;99.90
21193;DHT22;10754;51.106;7.164;2023-08-20T13:57:08;34.50;99.90
21193;DHT22;10754;51.106;7.164;2023-08-20T13:59:34;33.80;99.90
21193;DHT22;10754;51.106;7.164;2023-08-20T14:01:59;33.70;99.90
21193;DHT22;10754;51.106;7.164;2023-08-20T14:04:25;33.30;99.90
21193;DHT22;10754;51.106;7.164;2023-08-20T14:06:50;33.10;99.90
21193;DHT22;10754;51.106;7.164;2023-08-20T14:09:16;33.00;99.90
21193;DHT22;10754;51.106;7.164;2023-08-20T14:11:45;32.90;99.90
21193;DHT22;10754;51.106;7.164;2023-08-20T14:14:11;32.60;99.90
21193;DHT22;10754;51.106;7.164;2023-08-20T14:16:37;32.40;99.90
21193;DHT22;10754;51.106;7.164;2023-08-20T14:19:03;32.30;99.90
21193;DHT22;10754;51.106;7.164;2023-08-20T14:21:28;32.30;99.90
21193;DHT22;10754;51.106;7.164;2023-08-20T14:23:54;32.20;99.90
21193;DHT22;10754;51.106;7.164;2023-08-20T14:26:19;32.10;99.90
21193;DHT22;10754;51.106;7.164;2023-08-20T14:28:45;32.00;99.90
21193;DHT22;10754;51.106;7.164;2023-08-20T14:31:10;32.00;99.90
21193;DHT22;10754;51.106;7.164;2023-08-20T14:33:36;31.80;99.90
21193;DHT22;10754;51.106;7.164;2023-08-20T14:36:02;31.80;99.90
21193;DHT22;10754;51.106;7.164;2023-08-20T14:38:29;31.60;99.90
21193;DHT22;10754;51.106;7.164;2023-08-20T14:41:02;31.40;99.90
21193;DHT22;10754;51.106;7.164;2023-08-20T14:43:28;31.20;99.90
21193;DHT22;10754;51.106;7.164;2023-08-20T14:45:53;31.20;99.90
21193;DHT22;10754;51.106;7.164;2023-08-20T14:48:21;31.20;99.90
21193;DHT22;10754;51.106;7.164;2023-08-20T14:50:46;31.20;99.90
21193;DHT22;10754;51.106;7.164;2023-08-20T14:53:13;31.10;99.90
21193;DHT22;10754;51.106;7.164;2023-08-20T14:55:39;30.90;99.90
21193;DHT22;10754;51.106;7.164;2023-08-20T14:58:04;30.70;99.90
21193;DHT22;10754;51.106;7.164;2023-08-20T15:00:32;30.70;99.90
21193;DHT22;10754;51.106;7.164;2023-08-20T15:02:58;30.70;99.90
21193;DHT22;10754;51.106;7.164;2023-08-20T15:05:23;30.70;99.90
21193;DHT22;10754;51.106;7.164;2023-08-20T15:07:49;30.70;99.90
21193;DHT22;10754;51.106;7.164;2023-08-20T15:10:14;30.60;99.90
21193;DHT22;10754;51.106;7.164;2023-08-20T15:12:40;30.60;99.90
21193;DHT22;10754;51.106;7.164;2023-08-20T15:15:06;30.50;99.90
21193;DHT22;10754;51.106;7.164;2023-08-20T15:17:34;30.40;99.90
21193;DHT22;10754;51.106;7.164;2023-08-20T15:19:59;30.30;99.90
21193;DHT22;10754;51.106;7.164;2023-08-20T15:22:25;30.30;99.90
21193;DHT22;10754;51.106;7.164;2023-08-20T15:24:51;30.20;99.90
21193;DHT22;10754;51.106;7.164;2023-08-20T15:27:19;30.10;99.90
21193;DHT22;10754;51.106;7.164;2023-08-20T15:29:45;30.10;99.90
21193;DHT22;10754;51.106;7.164;2023-08-20T15:32:11;30.10;99.90
21193;DHT22;10754;51.106;7.164;2023-08-20T15:34:37;30.10;99.90
21193;DHT22;10754;51.106;7.164;2023-08-20T15:37:03;30.00;99.90
21193;DHT22;10754;51.106;7.164;2023-08-20T15:39:31;30.10;99.90
21193;DHT22;10754;51.106;7.164;2023-08-20T15:41:57;30.00;99.90
21193;DHT22;10754;51.106;7.164;2023-08-20T15:44:22;30.00;99.90